Corinth, Vermont
Current Conditions -  °F | °C
As of 4:51 PM on Friday 31 Oct 2014 (Local Time) from KMPV Reporting Station
Overcast Overcast  
Wind Chill: 46°   Ceiling: 4900
Heat Index: 46°   Visibility: 10mi
Dew Point: 29°   Wind: 3mph
Humidity: 51%   Direction: 100°E
Pressure: 30.02"   Gusts: NA
Location:  44.02°N, 72.3°W
Report Text: KMPV 312051Z AUTO 10003KT 10SM OVC049 08/M02 A3002 RMK AO2 SLP174 T00781017 55004
Loading
Personal Weather Stations






























Interactive Weather Map New forecast layout! Learn more

10-Day Weather Forecast

Advertisements
Track Severe Weather on mobile